sensor_id;sensor_type;location;lat;lon;timestamp;temperature;humidity
28729;DHT22;15894;50.452;30.446;2022-08-05T13:40:31;24.50;99.90
28729;DHT22;15894;50.452;30.446;2022-08-05T13:52:35;24.80;99.90
28729;DHT22;15894;50.452;30.446;2022-08-05T13:55:00;24.80;99.90
28729;DHT22;15894;50.452;30.446;2022-08-05T14:04:44;24.70;99.90
28729;DHT22;15894;50.452;30.446;2022-08-05T14:10:17;24.80;99.90
28729;DHT22;15894;50.452;30.446;2022-08-05T14:12:43;24.80;99.90
28729;DHT22;15894;50.452;30.446;2022-08-05T14:15:10;24.70;99.90
28729;DHT22;15894;50.452;30.446;2022-08-05T14:17:36;24.80;99.90
28729;DHT22;15894;50.452;30.446;2022-08-05T14:20:03;24.90;99.90
28729;DHT22;15894;50.452;30.446;2022-08-05T14:22:29;24.90;99.90
28729;DHT22;15894;50.452;30.446;2022-08-05T14:24:55;24.90;99.90
28729;DHT22;15894;50.452;30.446;2022-08-05T14:27:20;25.00;99.90
28729;DHT22;15894;50.452;30.446;2022-08-05T14:29:46;25.00;99.90
28729;DHT22;15894;50.452;30.446;2022-08-05T14:32:11;25.00;99.90
28729;DHT22;15894;50.452;30.446;2022-08-05T14:34:37;25.00;99.90
28729;DHT22;15894;50.452;30.446;2022-08-05T14:37:03;25.00;99.90
28729;DHT22;15894;50.452;30.446;2022-08-05T14:39:30;25.00;99.90
28729;DHT22;15894;50.452;30.446;2022-08-05T14:41:56;25.10;99.90
28729;DHT22;15894;50.452;30.446;2022-08-05T14:44:21;25.10;99.90
28729;DHT22;15894;50.452;30.446;2022-08-05T14:46:47;25.00;99.90
28729;DHT22;15894;50.452;30.446;2022-08-05T14:49:12;25.10;99.90
28729;DHT22;15894;50.452;30.446;2022-08-05T14:51:39;25.20;99.90
28729;DHT22;15894;50.452;30.446;2022-08-05T14:54:06;25.20;99.90
28729;DHT22;15894;50.452;30.446;2022-08-05T14:56:32;25.20;99.90
28729;DHT22;15894;50.452;30.446;2022-08-05T14:58:58;25.20;99.90
28729;DHT22;15894;50.452;30.446;2022-08-05T15:01:24;25.30;99.90
28729;DHT22;15894;50.452;30.446;2022-08-05T15:03:50;25.30;99.90
28729;DHT22;15894;50.452;30.446;2022-08-05T15:06:15;25.30;99.90
28729;DHT22;15894;50.452;30.446;2022-08-05T15:08:43;25.40;99.90
28729;DHT22;15894;50.452;30.446;2022-08-05T15:11:08;25.50;99.90
28729;DHT22;15894;50.452;30.446;2022-08-05T15:13:34;25.50;99.90
28729;DHT22;15894;50.452;30.446;2022-08-05T15:16:00;25.50;99.90
28729;DHT22;15894;50.452;30.446;2022-08-05T15:18:26;25.50;99.90
28729;DHT22;15894;50.452;30.446;2022-08-05T15:20:52;25.60;99.90
28729;DHT22;15894;50.452;30.446;2022-08-05T15:23:18;25.60;99.90
28729;DHT22;15894;50.452;30.446;2022-08-05T15:25:44;25.70;99.90
28729;DHT22;15894;50.452;30.446;2022-08-05T15:28:09;25.60;99.90
28729;DHT22;15894;50.452;30.446;2022-08-05T15:30:35;25.70;99.90
28729;DHT22;15894;50.452;30.446;2022-08-05T15:33:02;25.60;99.90
28729;DHT22;15894;50.452;30.446;2022-08-05T15:35:27;25.60;99.90
28729;DHT22;15894;50.452;30.446;2022-08-05T15:37:53;25.70;99.90
28729;DHT22;15894;50.452;30.446;2022-08-05T15:40:20;25.80;99.90
28729;DHT22;15894;50.452;30.446;2022-08-05T15:42:45;25.80;99.90
28729;DHT22;15894;50.452;30.446;2022-08-05T15:45:11;25.80;99.90
28729;DHT22;15894;50.452;30.446;2022-08-05T15:47:38;25.70;99.90
28729;DHT22;15894;50.452;30.446;2022-08-05T15:50:04;25.70;99.90
28729;DHT22;15894;50.452;30.446;2022-08-05T15:52:30;25.70;99.90
28729;DHT22;15894;50.452;30.446;2022-08-05T15:54:58;25.70;99.90
28729;DHT22;15894;50.452;30.446;2022-08-05T15:57:24;25.80;99.90
28729;DHT22;15894;50.452;30.446;2022-08-05T15:59:49;25.70;99.90
28729;DHT22;15894;50.452;30.446;2022-08-05T16:02:15;25.60;99.90
28729;DHT22;15894;50.452;30.446;2022-08-05T16:04:42;24.90;99.90
28729;DHT22;15894;50.452;30.446;2022-08-05T16:07:08;24.50;99.90
28729;DHT22;15894;50.452;30.446;2022-08-05T16:09:33;22.90;99.90
28729;DHT22;15894;50.452;30.446;2022-08-05T16:11:59;21.60;99.90
28729;DHT22;15894;50.452;30.446;2022-08-05T16:14:25;21.80;99.90
28729;DHT22;15894;50.452;30.446;2022-08-05T16:16:51;21.90;99.90
28729;DHT22;15894;50.452;30.446;2022-08-05T16:19:16;22.00;99.90
28729;DHT22;15894;50.452;30.446;2022-08-05T16:21:42;21.90;99.90
28729;DHT22;15894;50.452;30.446;2022-08-05T16:24:08;21.90;99.90
28729;DHT22;15894;50.452;30.446;2022-08-05T16:26:34;22.00;99.90
28729;DHT22;15894;50.452;30.446;2022-08-05T16:29:13;22.00;99.90
28729;DHT22;15894;50.452;30.446;2022-08-05T16:31:38;22.20;99.90
28729;DHT22;15894;50.452;30.446;2022-08-05T16:34:04;22.30;99.90
28729;DHT22;15894;50.452;30.446;2022-08-05T16:36:29;22.40;99.90
28729;DHT22;15894;50.452;30.446;2022-08-05T16:38:55;22.60;99.90
28729;DHT22;15894;50.452;30.446;2022-08-05T16:41:24;22.60;99.90
28729;DHT22;15894;50.452;30.446;2022-08-05T16:43:50;22.40;99.90
28729;DHT22;15894;50.452;30.446;2022-08-05T16:46:15;22.30;99.90
28729;DHT22;15894;50.452;30.446;2022-08-05T16:48:41;22.20;99.90
28729;DHT22;15894;50.452;30.446;2022-08-05T16:51:07;22.30;99.90
28729;DHT22;15894;50.452;30.446;2022-08-05T16:53:32;22.30;99.90
28729;DHT22;15894;50.452;30.446;2022-08-05T16:55:58;22.40;99.90
28729;DHT22;15894;50.452;30.446;2022-08-05T16:58:24;22.50;99.90
28729;DHT22;15894;50.452;30.446;2022-08-05T17:00:49;22.60;99.90
28729;DHT22;15894;50.452;30.446;2022-08-05T17:03:15;22.50;99.90
28729;DHT22;15894;50.452;30.446;2022-08-05T17:05:41;22.60;99.90
28729;DHT22;15894;50.452;30.446;2022-08-05T17:08:06;22.50;99.90
28729;DHT22;15894;50.452;30.446;2022-08-05T17:10:32;22.40;99.90
28729;DHT22;15894;50.452;30.446;2022-08-05T17:12:58;22.40;99.90
28729;DHT22;15894;50.452;30.446;2022-08-05T17:15:24;22.40;99.90
28729;DHT22;15894;50.452;30.446;2022-08-05T17:17:49;22.50;99.90
28729;DHT22;15894;50.452;30.446;2022-08-05T17:20:15;22.50;99.90
28729;DHT22;15894;50.452;30.446;2022-08-05T17:22:40;22.50;99.90
28729;DHT22;15894;50.452;30.446;2022-08-05T17:25:06;22.50;99.90
28729;DHT22;15894;50.452;30.446;2022-08-05T17:27:32;22.50;99.90
28729;DHT22;15894;50.452;30.446;2022-08-05T17:29:58;22.50;99.90
28729;DHT22;15894;50.452;30.446;2022-08-05T17:32:24;22.60;99.90
28729;DHT22;15894;50.452;30.446;2022-08-05T17:34:50;22.60;99.90
28729;DHT22;15894;50.452;30.446;2022-08-05T17:37:16;22.60;99.90
28729;DHT22;15894;50.452;30.446;2022-08-05T17:39:41;22.60;99.90
28729;DHT22;15894;50.452;30.446;2022-08-05T17:42:07;22.60;99.90
28729;DHT22;15894;50.452;30.446;2022-08-05T17:44:33;22.50;99.90
28729;DHT22;15894;50.452;30.446;2022-08-05T17:46:58;22.50;99.90
28729;DHT22;15894;50.452;30.446;2022-08-05T17:49:24;22.60;99.90
28729;DHT22;15894;50.452;30.446;2022-08-05T17:51:49;22.50;99.90
28729;DHT22;15894;50.452;30.446;2022-08-05T17:54:15;22.50;99.90
28729;DHT22;15894;50.452;30.446;2022-08-05T17:56:42;22.50;99.90
28729;DHT22;15894;50.452;30.446;2022-08-05T17:59:08;22.40;99.90
28729;DHT22;15894;50.452;30.446;2022-08-05T18:01:33;22.50;99.90
28729;DHT22;15894;50.452;30.446;2022-08-05T18:03:59;22.50;99.90
28729;DHT22;15894;50.452;30.446;2022-08-05T18:06:25;22.60;99.90
28729;DHT22;15894;50.452;30.446;2022-08-05T18:08:50;22.40;99.90
28729;DHT22;15894;50.452;30.446;2022-08-05T18:11:16;22.50;99.90
28729;DHT22;15894;50.452;30.446;2022-08-05T18:13:42;22.30;99.90
28729;DHT22;15894;50.452;30.446;2022-08-05T18:16:08;22.30;99.90
28729;DHT22;15894;50.452;30.446;2022-08-05T18:18:35;22.10;99.90
28729;DHT22;15894;50.452;30.446;2022-08-05T18:21:01;22.00;99.90
28729;DHT22;15894;50.452;30.446;2022-08-05T18:23:27;21.90;99.90
28729;DHT22;15894;50.452;30.446;2022-08-05T18:25:53;21.90;99.90
28729;DHT22;15894;50.452;30.446;2022-08-05T18:28:19;22.00;99.90
28729;DHT22;15894;50.452;30.446;2022-08-05T18:30:48;22.00;99.90
28729;DHT22;15894;50.452;30.446;2022-08-05T18:33:14;22.00;99.90
28729;DHT22;15894;50.452;30.446;2022-08-05T18:35:41;22.00;99.90
28729;DHT22;15894;50.452;30.446;2022-08-05T18:38:07;21.90;99.90
28729;DHT22;15894;50.452;30.446;2022-08-05T18:40:33;22.00;99.90
28729;DHT22;15894;50.452;30.446;2022-08-05T18:42:59;22.00;99.90
28729;DHT22;15894;50.452;30.446;2022-08-05T18:45:25;21.90;99.90
28729;DHT22;15894;50.452;30.446;2022-08-05T18:47:51;21.90;99.90
28729;DHT22;15894;50.452;30.446;2022-08-05T18:50:17;21.80;99.90
28729;DHT22;15894;50.452;30.446;2022-08-05T18:53:02;21.80;99.90
28729;DHT22;15894;50.452;30.446;2022-08-05T18:55:28;21.90;99.90
28729;DHT22;15894;50.452;30.446;2022-08-05T18:57:53;21.90;99.90
28729;DHT22;15894;50.452;30.446;2022-08-05T19:00:20;21.90;99.90
28729;DHT22;15894;50.452;30.446;2022-08-05T19:02:46;21.90;99.90
28729;DHT22;15894;50.452;30.446;2022-08-05T19:05:12;21.90;99.90
28729;DHT22;15894;50.452;30.446;2022-08-05T19:07:37;21.90;99.90
28729;DHT22;15894;50.452;30.446;2022-08-05T19:10:04;22.00;99.90
28729;DHT22;15894;50.452;30.446;2022-08-05T19:12:30;22.00;99.90
28729;DHT22;15894;50.452;30.446;2022-08-05T19:14:58;21.90;99.90
28729;DHT22;15894;50.452;30.446;2022-08-05T19:17:24;21.90;99.90
28729;DHT22;15894;50.452;30.446;2022-08-05T19:19:50;21.90;99.90
28729;DHT22;15894;50.452;30.446;2022-08-05T19:22:16;21.90;99.90
28729;DHT22;15894;50.452;30.446;2022-08-05T19:24:42;21.90;99.90
28729;DHT22;15894;50.452;30.446;2022-08-05T19:27:07;21.90;99.90
28729;DHT22;15894;50.452;30.446;2022-08-05T19:29:36;21.80;99.90
28729;DHT22;15894;50.452;30.446;2022-08-05T19:32:05;21.90;99.90
28729;DHT22;15894;50.452;30.446;2022-08-05T19:34:31;21.80;99.90
28729;DHT22;15894;50.452;30.446;2022-08-05T19:36:57;21.90;99.90
28729;DHT22;15894;50.452;30.446;2022-08-05T19:39:23;21.90;99.90
28729;DHT22;15894;50.452;30.446;2022-08-05T19:41:48;21.90;99.90
28729;DHT22;15894;50.452;30.446;2022-08-05T19:44:14;21.90;99.90
28729;DHT22;15894;50.452;30.446;2022-08-05T19:46:40;21.90;99.90
28729;DHT22;15894;50.452;30.446;2022-08-05T19:49:06;22.00;99.90
28729;DHT22;15894;50.452;30.446;2022-08-05T19:51:33;22.00;99.90
28729;DHT22;15894;50.452;30.446;2022-08-05T19:53:59;21.90;99.90
28729;DHT22;15894;50.452;30.446;2022-08-05T19:56:24;21.90;99.90
28729;DHT22;15894;50.452;30.446;2022-08-05T19:58:50;21.90;99.90
28729;DHT22;15894;50.452;30.446;2022-08-05T20:01:16;21.80;99.90
28729;DHT22;15894;50.452;30.446;2022-08-05T20:03:42;21.80;99.90
28729;DHT22;15894;50.452;30.446;2022-08-05T20:06:08;21.80;99.90
28729;DHT22;15894;50.452;30.446;2022-08-05T20:08:33;21.70;99.90
28729;DHT22;15894;50.452;30.446;2022-08-05T20:10:59;21.70;99.90
28729;DHT22;15894;50.452;30.446;2022-08-05T20:13:25;21.60;99.90
28729;DHT22;15894;50.452;30.446;2022-08-05T20:15:51;21.60;99.90
28729;DHT22;15894;50.452;30.446;2022-08-05T20:18:17;21.50;99.90
28729;DHT22;15894;50.452;30.446;2022-08-05T20:20:44;21.50;99.90
28729;DHT22;15894;50.452;30.446;2022-08-05T20:23:10;21.50;99.90
28729;DHT22;15894;50.452;30.446;2022-08-05T20:25:36;21.40;99.90
28729;DHT22;15894;50.452;30.446;2022-08-05T20:28:02;21.40;99.90
28729;DHT22;15894;50.452;30.446;2022-08-05T20:30:27;21.40;99.90
28729;DHT22;15894;50.452;30.446;2022-08-05T20:32:54;21.40;99.90
28729;DHT22;15894;50.452;30.446;2022-08-05T20:35:20;21.30;99.90
28729;DHT22;15894;50.452;30.446;2022-08-05T20:37:46;21.30;99.90
28729;DHT22;15894;50.452;30.446;2022-08-05T20:40:12;21.30;99.90
28729;DHT22;15894;50.452;30.446;2022-08-05T20:42:37;21.30;99.90
28729;DHT22;15894;50.452;30.446;2022-08-05T20:45:04;21.30;99.90
28729;DHT22;15894;50.452;30.446;2022-08-05T20:47:30;21.20;99.90
28729;DHT22;15894;50.452;30.446;2022-08-05T20:49:56;21.20;99.90
28729;DHT22;15894;50.452;30.446;2022-08-05T20:52:22;21.20;99.90
28729;DHT22;15894;50.452;30.446;2022-08-05T20:54:47;21.20;99.90
28729;DHT22;15894;50.452;30.446;2022-08-05T20:57:13;21.20;99.90
28729;DHT22;15894;50.452;30.446;2022-08-05T20:59:39;21.20;99.90
28729;DHT22;15894;50.452;30.446;2022-08-05T21:02:05;21.20;99.90
28729;DHT22;15894;50.452;30.446;2022-08-05T21:04:31;21.10;99.90
28729;DHT22;15894;50.452;30.446;2022-08-05T21:06:57;21.10;99.90
28729;DHT22;15894;50.452;30.446;2022-08-05T21:09:23;21.10;99.90
28729;DHT22;15894;50.452;30.446;2022-08-05T21:11:49;21.00;99.90
28729;DHT22;15894;50.452;30.446;2022-08-05T21:14:15;21.00;99.90
28729;DHT22;15894;50.452;30.446;2022-08-05T21:16:41;21.00;99.90
28729;DHT22;15894;50.452;30.446;2022-08-05T21:19:06;21.00;99.90
28729;DHT22;15894;50.452;30.446;2022-08-05T21:21:32;21.00;99.90
28729;DHT22;15894;50.452;30.446;2022-08-05T21:23:58;20.90;99.90
28729;DHT22;15894;50.452;30.446;2022-08-05T21:26:23;20.90;99.90
28729;DHT22;15894;50.452;30.446;2022-08-05T21:28:49;20.90;99.90
28729;DHT22;15894;50.452;30.446;2022-08-05T21:31:15;20.90;99.90
28729;DHT22;15894;50.452;30.446;2022-08-05T21:33:40;20.90;99.90
28729;DHT22;15894;50.452;30.446;2022-08-05T21:36:06;20.90;99.90
28729;DHT22;15894;50.452;30.446;2022-08-05T21:38:32;20.90;99.90
28729;DHT22;15894;50.452;30.446;2022-08-05T21:40:57;20.90;99.90
28729;DHT22;15894;50.452;30.446;2022-08-05T21:43:23;20.80;99.90
28729;DHT22;15894;50.452;30.446;2022-08-05T21:45:49;20.80;99.90
28729;DHT22;15894;50.452;30.446;2022-08-05T21:48:14;20.80;99.90
28729;DHT22;15894;50.452;30.446;2022-08-05T21:50:41;20.80;99.90
28729;DHT22;15894;50.452;30.446;2022-08-05T21:53:07;20.70;99.90
28729;DHT22;15894;50.452;30.446;2022-08-05T21:55:33;20.70;99.90
28729;DHT22;15894;50.452;30.446;2022-08-05T21:57:59;20.70;99.90
28729;DHT22;15894;50.452;30.446;2022-08-05T22:00:25;20.70;99.90
28729;DHT22;15894;50.452;30.446;2022-08-05T22:02:51;20.70;99.90
28729;DHT22;15894;50.452;30.446;2022-08-05T22:05:17;20.70;99.90
28729;DHT22;15894;50.452;30.446;2022-08-05T22:07:42;20.60;99.90
28729;DHT22;15894;50.452;30.446;2022-08-05T22:10:09;20.60;99.90
28729;DHT22;15894;50.452;30.446;2022-08-05T22:12:35;20.60;99.90
28729;DHT22;15894;50.452;30.446;2022-08-05T22:15:08;20.60;99.90
28729;DHT22;15894;50.452;30.446;2022-08-05T22:17:36;20.60;99.90
28729;DHT22;15894;50.452;30.446;2022-08-05T22:20:02;20.60;99.90
28729;DHT22;15894;50.452;30.446;2022-08-05T22:22:28;20.50;99.90
28729;DHT22;15894;50.452;30.446;2022-08-05T22:24:54;20.60;99.90
28729;DHT22;15894;50.452;30.446;2022-08-05T22:27:38;20.50;99.90
28729;DHT22;15894;50.452;30.446;2022-08-05T22:30:12;20.50;99.90
28729;DHT22;15894;50.452;30.446;2022-08-05T22:32:39;20.60;99.90
28729;DHT22;15894;50.452;30.446;2022-08-05T22:35:05;20.60;99.90
28729;DHT22;15894;50.452;30.446;2022-08-05T22:37:31;20.60;99.90
28729;DHT22;15894;50.452;30.446;2022-08-05T22:39:57;20.60;99.90
28729;DHT22;15894;50.452;30.446;2022-08-05T22:42:23;20.50;99.90
28729;DHT22;15894;50.452;30.446;2022-08-05T22:44:48;20.50;99.90
28729;DHT22;15894;50.452;30.446;2022-08-05T22:47:14;20.50;99.90
28729;DHT22;15894;50.452;30.446;2022-08-05T22:49:40;20.40;99.90
28729;DHT22;15894;50.452;30.446;2022-08-05T22:52:05;20.50;99.90
28729;DHT22;15894;50.452;30.446;2022-08-05T22:54:31;20.50;99.90
28729;DHT22;15894;50.452;30.446;2022-08-05T22:56:57;20.40;99.90
28729;DHT22;15894;50.452;30.446;2022-08-05T22:59:22;20.40;99.90
28729;DHT22;15894;50.452;30.446;2022-08-05T23:01:48;20.40;99.90
28729;DHT22;15894;50.452;30.446;2022-08-05T23:04:13;20.40;99.90
28729;DHT22;15894;50.452;30.446;2022-08-05T23:06:39;20.40;99.90
28729;DHT22;15894;50.452;30.446;2022-08-05T23:09:04;20.40;99.90
28729;DHT22;15894;50.452;30.446;2022-08-05T23:11:30;20.40;99.90
28729;DHT22;15894;50.452;30.446;2022-08-05T23:13:56;20.30;99.90
28729;DHT22;15894;50.452;30.446;2022-08-05T23:16:21;20.30;99.90
28729;DHT22;15894;50.452;30.446;2022-08-05T23:19:07;20.30;99.90
28729;DHT22;15894;50.452;30.446;2022-08-05T23:21:32;20.20;99.90
28729;DHT22;15894;50.452;30.446;2022-08-05T23:23:58;20.20;99.90
28729;DHT22;15894;50.452;30.446;2022-08-05T23:26:23;20.30;99.90
28729;DHT22;15894;50.452;30.446;2022-08-05T23:28:49;20.30;99.90
28729;DHT22;15894;50.452;30.446;2022-08-05T23:31:15;20.30;99.90
28729;DHT22;15894;50.452;30.446;2022-08-05T23:33:40;20.20;99.90
28729;DHT22;15894;50.452;30.446;2022-08-05T23:36:06;20.20;99.90
28729;DHT22;15894;50.452;30.446;2022-08-05T23:38:32;20.20;99.90
28729;DHT22;15894;50.452;30.446;2022-08-05T23:40:57;20.20;99.90
28729;DHT22;15894;50.452;30.446;2022-08-05T23:43:23;20.20;99.90
28729;DHT22;15894;50.452;30.446;2022-08-05T23:45:48;20.20;99.90
28729;DHT22;15894;50.452;30.446;2022-08-05T23:48:14;20.20;99.90
28729;DHT22;15894;50.452;30.446;2022-08-05T23:50:40;20.20;99.90
28729;DHT22;15894;50.452;30.446;2022-08-05T23:53:05;20.20;99.90
28729;DHT22;15894;50.452;30.446;2022-08-05T23:55:31;20.10;99.90
28729;DHT22;15894;50.452;30.446;2022-08-05T23:57:56;20.10;99.90
